createdAt,value
2018-06-18T00:00:07.963Z,937.72
2018-06-18T00:00:19.991Z,937.71
2018-06-18T00:00:33.003Z,937.7
2018-06-18T00:00:45.043Z,937.69
2018-06-18T00:00:58.071Z,937.67
2018-06-18T00:01:10.545Z,937.7
2018-06-18T00:01:22.657Z,937.68
2018-06-18T00:01:34.740Z,937.64
2018-06-18T00:01:47.698Z,937.71
2018-06-18T00:02:00.648Z,937.7
2018-06-18T00:02:13.655Z,937.66
2018-06-18T00:02:26.608Z,937.65
2018-06-18T00:02:39.103Z,937.69
2018-06-18T00:02:51.569Z,937.68
2018-06-18T00:03:03.627Z,937.67
2018-06-18T00:03:16.595Z,937.68
2018-06-18T00:03:29.260Z,937.66
2018-06-18T00:03:42.187Z,937.67
2018-06-18T00:03:54.728Z,937.68
2018-06-18T00:04:07.736Z,937.64
2018-06-18T00:04:20.291Z,937.72
2018-06-18T00:04:32.386Z,937.66
2018-06-18T00:04:44.508Z,937.67
2018-06-18T00:04:57.029Z,937.67
2018-06-18T00:05:10.095Z,937.68
2018-06-18T00:05:22.611Z,937.71
2018-06-18T00:05:35.552Z,937.71
2018-06-18T00:05:48.495Z,937.71
2018-06-18T00:06:01.014Z,937.71
2018-06-18T00:06:13.992Z,937.68
2018-06-18T00:06:26.991Z,937.7
2018-06-18T00:06:39.042Z,937.7
2018-06-18T00:06:52.075Z,937.69
2018-06-18T00:07:05.066Z,937.69
2018-06-18T00:07:17.581Z,937.7
2018-06-18T00:07:30.122Z,937.67
2018-06-18T00:07:42.108Z,937.67
2018-06-18T00:07:54.599Z,937.68
2018-06-18T00:08:07.110Z,937.65
2018-06-18T00:08:19.605Z,937.66
2018-06-18T00:08:32.147Z,937.65
2018-06-18T00:08:45.175Z,937.67
2018-06-18T00:08:58.104Z,937.68
2018-06-18T00:09:11.024Z,937.7
2018-06-18T00:09:23.952Z,937.69
2018-06-18T00:09:36.010Z,937.66
2018-06-18T00:09:48.558Z,937.68
2018-06-18T00:10:01.566Z,937.67
2018-06-18T00:10:13.663Z,937.7
2018-06-18T00:10:26.193Z,937.69
2018-06-18T00:10:39.159Z,937.71
2018-06-18T00:10:53.181Z,937.7
2018-06-18T00:11:05.689Z,937.66
2018-06-18T00:11:18.648Z,937.71
2018-06-18T00:11:31.209Z,937.68
2018-06-18T00:11:44.199Z,937.69
2018-06-18T00:11:56.736Z,937.74
2018-06-18T00:12:08.799Z,937.72
2018-06-18T00:12:21.776Z,937.73
2018-06-18T00:12:34.812Z,937.71
2018-06-18T00:12:47.973Z,937.71
2018-06-18T00:13:00.939Z,937.66
2018-06-18T00:13:13.489Z,937.73
2018-06-18T00:13:26.423Z,937.67
2018-06-18T00:13:39.035Z,937.71
2018-06-18T00:13:52.066Z,937.69
2018-06-18T00:14:04.651Z,937.7
2018-06-18T00:14:16.687Z,937.67
2018-06-18T00:14:29.676Z,937.68
2018-06-18T00:14:42.162Z,937.69
2018-06-18T00:14:54.720Z,937.71
2018-06-18T00:15:07.709Z,937.69
2018-06-18T00:15:20.223Z,937.71
2018-06-18T00:15:33.222Z,937.7
2018-06-18T00:15:46.439Z,937.69
2018-06-18T00:15:59.449Z,937.67
2018-06-18T00:16:11.513Z,937.67
2018-06-18T00:16:24.038Z,937.7
2018-06-18T00:16:36.546Z,937.73
2018-06-18T00:16:49.056Z,937.69
2018-06-18T00:17:01.567Z,937.69
2018-06-18T00:17:14.118Z,937.74
2018-06-18T00:17:26.610Z,937.72
2018-06-18T00:17:39.584Z,937.67
2018-06-18T00:17:52.580Z,937.67
2018-06-18T00:18:05.072Z,937.69
2018-06-18T00:18:18.077Z,937.68
2018-06-18T00:18:31.020Z,937.69
2018-06-18T00:18:44.016Z,937.68
2018-06-18T00:18:56.993Z,937.67
2018-06-18T00:19:09.962Z,937.71
2018-06-18T00:19:22.968Z,937.7
2018-06-18T00:19:35.981Z,937.73
2018-06-18T00:19:47.995Z,937.68
2018-06-18T00:20:00.498Z,937.72
2018-06-18T00:20:12.074Z,937.73
2018-06-18T00:20:24.538Z,937.71
2018-06-18T00:20:37.490Z,937.72
2018-06-18T00:20:49.504Z,937.72
2018-06-18T00:21:01.533Z,937.74
2018-06-18T00:21:13.576Z,937.69
2018-06-18T00:21:26.488Z,937.74
2018-06-18T00:21:38.993Z,937.74
2018-06-18T00:21:51.988Z,937.71
2018-06-18T00:22:04.523Z,937.78
2018-06-18T00:22:16.997Z,937.72
2018-06-18T00:22:30.016Z,937.78
2018-06-18T00:22:42.495Z,937.78
2018-06-18T00:22:55.526Z,937.76
2018-06-18T00:23:08.004Z,937.78
2018-06-18T00:23:20.055Z,937.78
2018-06-18T00:23:33.059Z,937.77
2018-06-18T00:23:46.059Z,937.78
2018-06-18T00:23:59.041Z,937.77
2018-06-18T00:24:11.087Z,937.77
2018-06-18T00:24:24.099Z,937.74
2018-06-18T00:24:35.719Z,937.75
2018-06-18T00:24:48.747Z,937.79
2018-06-18T00:25:01.246Z,937.74
2018-06-18T00:25:13.743Z,937.77
2018-06-18T00:25:25.795Z,937.75
2018-06-18T00:25:38.277Z,937.77
2018-06-18T00:25:50.343Z,937.74
2018-06-18T00:26:02.383Z,937.83
2018-06-18T00:26:15.374Z,937.77
2018-06-18T00:26:28.380Z,937.77
2018-06-18T00:26:41.387Z,937.81
2018-06-18T00:26:53.394Z,937.77
2018-06-18T00:27:05.885Z,937.77
2018-06-18T00:27:18.368Z,937.78
2018-06-18T00:27:31.338Z,937.81
2018-06-18T00:27:43.871Z,937.82
2018-06-18T00:27:55.932Z,937.79
2018-06-18T00:28:08.475Z,937.75
2018-06-18T00:28:21.472Z,937.79
2018-06-18T00:28:34.462Z,937.83
2018-06-18T00:28:47.465Z,937.87
2018-06-18T00:29:00.395Z,937.84
2018-06-18T00:29:12.949Z,937.8
2018-06-18T00:29:25.051Z,937.83
2018-06-18T00:29:38.073Z,937.83
2018-06-18T00:29:50.990Z,937.83
2018-06-18T00:30:03.485Z,937.85
2018-06-18T00:30:16.498Z,937.85
2018-06-18T00:30:28.520Z,937.81
2018-06-18T00:30:41.039Z,937.83
2018-06-18T00:30:54.035Z,937.84
2018-06-18T00:31:06.543Z,937.86
2018-06-18T00:31:19.037Z,937.81
2018-06-18T00:31:30.692Z,937.83
2018-06-18T00:31:43.229Z,937.85
2018-06-18T00:31:56.167Z,937.81
2018-06-18T00:32:08.177Z,937.84
2018-06-18T00:32:20.680Z,937.8
2018-06-18T00:32:33.196Z,937.85
2018-06-18T00:32:46.163Z,937.87
2018-06-18T00:32:58.690Z,937.85
2018-06-18T00:33:11.663Z,937.85
2018-06-18T00:33:24.213Z,937.84
2018-06-18T00:33:37.189Z,937.86
2018-06-18T00:33:49.735Z,937.86
2018-06-18T00:34:02.741Z,937.86
2018-06-18T00:34:15.231Z,937.87
2018-06-18T00:34:27.317Z,937.88
2018-06-18T00:34:40.324Z,937.88
2018-06-18T00:34:53.279Z,937.88
2018-06-18T00:35:05.367Z,937.9
2018-06-18T00:35:16.988Z,937.9
2018-06-18T00:35:29.933Z,937.81
2018-06-18T00:35:42.910Z,937.89
2018-06-18T00:35:55.873Z,937.9
2018-06-18T00:36:07.940Z,937.88
2018-06-18T00:36:20.917Z,937.9
2018-06-18T00:36:32.961Z,937.93
2018-06-18T00:36:45.941Z,937.88
2018-06-18T00:36:58.417Z,937.89
2018-06-18T00:37:10.497Z,937.87
2018-06-18T00:37:23.498Z,937.86
2018-06-18T00:37:36.453Z,937.87
2018-06-18T00:37:48.988Z,937.87
2018-06-18T00:38:01.933Z,937.82
2018-06-18T00:38:13.986Z,937.84
2018-06-18T00:38:26.057Z,937.83
2018-06-18T00:38:39.053Z,937.85
2018-06-18T00:38:50.631Z,937.82
2018-06-18T00:39:03.593Z,937.85
2018-06-18T00:39:15.609Z,937.89
2018-06-18T00:39:28.058Z,937.91
2018-06-18T00:39:41.052Z,937.9
2018-06-18T00:39:54.037Z,937.83
2018-06-18T00:40:06.093Z,937.88
2018-06-18T00:40:18.162Z,937.89
2018-06-18T00:40:31.178Z,937.82
2018-06-18T00:40:44.109Z,937.85
2018-06-18T00:40:58.030Z,937.87
2018-06-18T00:41:09.598Z,937.83
2018-06-18T00:41:22.115Z,937.85
2018-06-18T00:41:35.121Z,937.85
2018-06-18T00:41:47.637Z,937.82
2018-06-18T00:42:00.089Z,937.84
2018-06-18T00:42:13.090Z,937.87
2018-06-18T00:42:25.131Z,937.87
2018-06-18T00:42:38.133Z,937.81
2018-06-18T00:42:50.644Z,937.84
2018-06-18T00:43:03.208Z,937.83
2018-06-18T00:43:16.216Z,937.92
2018-06-18T00:43:29.131Z,937.87
2018-06-18T00:43:42.138Z,937.82
2018-06-18T00:43:55.089Z,937.81
2018-06-18T00:44:07.621Z,937.89
2018-06-18T00:44:20.107Z,937.89
2018-06-18T00:44:32.127Z,937.86
2018-06-18T00:44:44.653Z,937.83
2018-06-18T00:44:57.238Z,937.83
2018-06-18T00:45:09.762Z,937.83
2018-06-18T00:45:22.283Z,937.84
2018-06-18T00:45:35.266Z,937.82
2018-06-18T00:45:47.784Z,937.8
2018-06-18T00:46:00.802Z,937.84
2018-06-18T00:46:11.948Z,937.82
2018-06-18T00:46:24.480Z,937.83
2018-06-18T00:46:37.421Z,937.88
2018-06-18T00:46:50.405Z,937.9
2018-06-18T00:47:02.850Z,937.85
2018-06-18T00:47:15.818Z,937.87
2018-06-18T00:47:28.340Z,937.86
2018-06-18T00:47:41.327Z,937.86
2018-06-18T00:47:53.804Z,937.89
2018-06-18T00:48:06.324Z,937.89
2018-06-18T00:48:18.369Z,937.9
2018-06-18T00:48:31.303Z,937.91
2018-06-18T00:48:43.832Z,937.92
2018-06-18T00:48:56.330Z,937.91
2018-06-18T00:49:08.371Z,937.92
2018-06-18T00:49:21.296Z,937.92
2018-06-18T00:49:33.350Z,937.87
2018-06-18T00:49:46.300Z,937.87
2018-06-18T00:49:58.308Z,937.91
2018-06-18T00:50:10.342Z,937.92
2018-06-18T00:50:23.277Z,937.96
2018-06-18T00:50:35.341Z,937.88
2018-06-18T00:50:48.275Z,937.92
2018-06-18T00:51:01.278Z,937.95
2018-06-18T00:51:13.297Z,937.94
2018-06-18T00:51:25.349Z,937.91
2018-06-18T00:51:37.879Z,937.94
2018-06-18T00:51:50.434Z,937.95
2018-06-18T00:52:02.888Z,937.94
2018-06-18T00:52:15.390Z,937.95
2018-06-18T00:52:28.405Z,937.93
2018-06-18T00:52:40.868Z,937.94
2018-06-18T00:52:52.955Z,937.91
2018-06-18T00:53:04.986Z,937.95
2018-06-18T00:53:17.939Z,937.94
2018-06-18T00:53:30.897Z,937.92
2018-06-18T00:53:43.902Z,937.89
2018-06-18T00:53:56.398Z,937.93
2018-06-18T00:54:08.943Z,937.95
2018-06-18T00:54:21.918Z,937.94
2018-06-18T00:54:34.405Z,937.94
2018-06-18T00:54:47.361Z,937.93
2018-06-18T00:55:00.398Z,937.94
2018-06-18T00:55:12.440Z,937.96
2018-06-18T00:55:24.900Z,937.93
2018-06-18T00:55:37.862Z,937.95
2018-06-18T00:55:50.404Z,937.96
2018-06-18T00:56:03.643Z,937.91
2018-06-18T00:56:15.758Z,937.94
2018-06-18T00:56:28.804Z,937.95
2018-06-18T00:56:41.846Z,937.94
2018-06-18T00:56:54.381Z,937.95
2018-06-18T00:57:07.328Z,937.95
2018-06-18T00:57:19.901Z,937.97
2018-06-18T00:57:32.413Z,937.97
2018-06-18T00:57:44.965Z,938.02
2018-06-18T00:57:57.967Z,937.98
2018-06-18T00:58:10.475Z,937.96
2018-06-18T00:58:22.525Z,937.94
2018-06-18T00:58:35.444Z,937.98
2018-06-18T00:58:48.407Z,937.96
2018-06-18T00:59:00.464Z,938.01
2018-06-18T00:59:12.946Z,937.98
2018-06-18T00:59:25.464Z,938
2018-06-18T00:59:37.510Z,937.97
2018-06-18T00:59:50.494Z,937.95
2018-06-18T01:00:02.994Z,937.95
2018-06-18T01:00:15.097Z,937.98
2018-06-18T01:00:27.633Z,938
2018-06-18T01:00:40.662Z,938.03
2018-06-18T01:00:53.227Z,938
2018-06-18T01:01:05.797Z,938
2018-06-18T01:01:18.315Z,938.01
2018-06-18T01:01:30.796Z,938.05
2018-06-18T01:01:43.834Z,938.02
2018-06-18T01:01:56.802Z,938.02
2018-06-18T01:02:08.854Z,938.04
2018-06-18T01:02:21.862Z,937.98
2018-06-18T01:02:34.911Z,938
2018-06-18T01:02:47.849Z,938.05
2018-06-18T01:03:00.813Z,938.01
2018-06-18T01:03:13.816Z,938.03
2018-06-18T01:03:26.809Z,938.01
2018-06-18T01:03:39.319Z,938.02
2018-06-18T01:03:52.273Z,938.01
2018-06-18T01:04:04.820Z,937.97
2018-06-18T01:04:16.877Z,938.05
2018-06-18T01:04:29.811Z,938.02
2018-06-18T01:04:42.304Z,938.01
2018-06-18T01:04:55.340Z,938
2018-06-18T01:05:06.881Z,937.99
2018-06-18T01:05:18.938Z,938.01
2018-06-18T01:05:31.896Z,938.02
2018-06-18T01:05:44.811Z,938.01
2018-06-18T01:05:57.319Z,937.99
2018-06-18T01:06:08.924Z,938.03
2018-06-18T01:06:21.864Z,938.05
2018-06-18T01:06:34.897Z,937.99
2018-06-18T01:06:47.848Z,938.03
2018-06-18T01:07:00.839Z,938.04
2018-06-18T01:07:13.321Z,938.06
2018-06-18T01:07:25.801Z,938.05
2018-06-18T01:07:38.346Z,938.01
2018-06-18T01:07:51.308Z,938.05
2018-06-18T01:08:04.259Z,938.05
2018-06-18T01:08:17.261Z,938.06
2018-06-18T01:08:30.249Z,938.09
2018-06-18T01:08:43.201Z,938.07
2018-06-18T01:08:56.160Z,938.07
2018-06-18T01:09:08.671Z,938.03
2018-06-18T01:09:20.695Z,938.07
2018-06-18T01:09:33.182Z,938.08
2018-06-18T01:09:46.117Z,938.07
2018-06-18T01:09:58.649Z,938.07
2018-06-18T01:10:11.167Z,938.07
2018-06-18T01:10:24.178Z,938.09
2018-06-18T01:10:36.714Z,938.06
2018-06-18T01:10:49.677Z,938.08
2018-06-18T01:11:02.198Z,938.07
2018-06-18T01:11:15.348Z,938.1
2018-06-18T01:11:27.989Z,938.1
2018-06-18T01:11:41.069Z,938.08
2018-06-18T01:11:53.561Z,938.11
2018-06-18T01:12:05.144Z,938.05
2018-06-18T01:12:17.223Z,938.1
2018-06-18T01:12:30.235Z,938.08
2018-06-18T01:12:43.219Z,938.08
2018-06-18T01:12:56.193Z,938.1
2018-06-18T01:13:08.718Z,938.1
2018-06-18T01:13:21.648Z,938.11
2018-06-18T01:13:34.677Z,938.12
2018-06-18T01:13:47.641Z,938.11
2018-06-18T01:14:00.196Z,938.08
2018-06-18T01:14:12.640Z,938.08
2018-06-18T01:14:25.150Z,938.08
2018-06-18T01:14:37.658Z,938.12
2018-06-18T01:14:50.608Z,938.08
2018-06-18T01:15:03.584Z,938.11
2018-06-18T01:15:15.660Z,938.12
2018-06-18T01:15:28.163Z,938.1
2018-06-18T01:15:41.124Z,938.12
2018-06-18T01:15:54.069Z,938.12
2018-06-18T01:16:06.663Z,938.16
2018-06-18T01:16:19.829Z,938.1
2018-06-18T01:16:32.826Z,938.11
2018-06-18T01:16:45.285Z,938.18
2018-06-18T01:16:58.219Z,938.17
2018-06-18T01:17:11.195Z,938.13
2018-06-18T01:17:24.236Z,938.2
2018-06-18T01:17:36.300Z,938.16
2018-06-18T01:17:48.785Z,938.15
2018-06-18T01:18:01.751Z,938.15
2018-06-18T01:18:14.749Z,938.16
2018-06-18T01:18:27.675Z,938.17
2018-06-18T01:18:39.785Z,938.15
2018-06-18T01:18:52.814Z,938.15
2018-06-18T01:19:05.834Z,938.2
2018-06-18T01:19:17.915Z,938.18
2018-06-18T01:19:30.415Z,938.16
2018-06-18T01:19:42.945Z,938.15
2018-06-18T01:19:55.945Z,938.16
2018-06-18T01:20:08.478Z,938.16
2018-06-18T01:20:20.992Z,938.15
2018-06-18T01:20:33.020Z,938.18
2018-06-18T01:20:45.985Z,938.15
2018-06-18T01:20:58.961Z,938.15
2018-06-18T01:21:11.504Z,938.16
2018-06-18T01:21:24.007Z,938.12
2018-06-18T01:21:36.522Z,938.16
2018-06-18T01:21:49.071Z,938.15
2018-06-18T01:22:02.042Z,938.16
2018-06-18T01:22:13.582Z,938.16
2018-06-18T01:22:26.616Z,938.16
2018-06-18T01:22:38.239Z,938.14
2018-06-18T01:22:50.807Z,938.18
2018-06-18T01:23:03.334Z,938.18
2018-06-18T01:23:15.828Z,938.18
2018-06-18T01:23:28.379Z,938.21
2018-06-18T01:23:41.385Z,938.2
2018-06-18T01:23:54.507Z,938.17
2018-06-18T01:24:07.458Z,938.21
2018-06-18T01:24:20.017Z,938.22
2018-06-18T01:24:32.566Z,938.16
2018-06-18T01:24:45.549Z,938.18
2018-06-18T01:24:58.091Z,938.18
2018-06-18T01:25:11.075Z,938.22
2018-06-18T01:25:23.590Z,938.23
2018-06-18T01:25:35.634Z,938.19
2018-06-18T01:25:48.571Z,938.16
2018-06-18T01:26:01.069Z,938.19
2018-06-18T01:26:13.354Z,938.2
2018-06-18T01:26:25.919Z,938.18
2018-06-18T01:26:38.434Z,938.15
2018-06-18T01:26:51.481Z,938.15
2018-06-18T01:27:03.995Z,938.15
2018-06-18T01:27:16.984Z,938.2
2018-06-18T01:27:29.472Z,938.21
2018-06-18T01:27:42.015Z,938.2
2018-06-18T01:27:54.031Z,938.2
2018-06-18T01:28:07.045Z,938.2
2018-06-18T01:28:20.033Z,938.2
2018-06-18T01:28:32.519Z,938.19
2018-06-18T01:28:44.530Z,938.26
2018-06-18T01:28:57.520Z,938.19
2018-06-18T01:29:10.054Z,938.23
2018-06-18T01:29:22.541Z,938.18
2018-06-18T01:29:35.455Z,938.19
2018-06-18T01:29:47.954Z,938.19
2018-06-18T01:30:00.966Z,938.19
2018-06-18T01:30:13.481Z,938.24
2018-06-18T01:30:26.516Z,938.22
2018-06-18T01:30:39.089Z,938.18
2018-06-18T01:30:52.063Z,938.24
2018-06-18T01:31:05.038Z,938.23
2018-06-18T01:31:17.585Z,938.19
2018-06-18T01:31:30.085Z,938.16
2018-06-18T01:31:43.086Z,938.17
2018-06-18T01:31:56.105Z,938.18
2018-06-18T01:32:08.141Z,938.16
2018-06-18T01:32:20.681Z,938.18
2018-06-18T01:32:33.255Z,938.16
2018-06-18T01:32:46.239Z,938.23
2018-06-18T01:32:58.750Z,938.18
2018-06-18T01:33:11.254Z,938.13
2018-06-18T01:33:23.290Z,938.18
2018-06-18T01:33:35.327Z,938.2
2018-06-18T01:33:47.823Z,938.21
2018-06-18T01:34:00.852Z,938.22
2018-06-18T01:34:12.922Z,938.19
2018-06-18T01:34:25.869Z,938.24
2018-06-18T01:34:38.401Z,938.17
2018-06-18T01:34:50.882Z,938.23
2018-06-18T01:35:03.408Z,938.22
2018-06-18T01:35:16.539Z,938.21
2018-06-18T01:35:29.515Z,938.2
2018-06-18T01:35:41.561Z,938.17
2018-06-18T01:35:53.121Z,938.18
2018-06-18T01:36:05.243Z,938.17
2018-06-18T01:36:17.245Z,938.16
2018-06-18T01:36:29.806Z,938.17
2018-06-18T01:36:41.875Z,938.16
2018-06-18T01:36:53.954Z,938.15
2018-06-18T01:37:06.970Z,938.13
2018-06-18T01:37:19.935Z,938.17
2018-06-18T01:37:32.907Z,938.21
2018-06-18T01:37:45.934Z,938.13
2018-06-18T01:37:58.887Z,938.15
2018-06-18T01:38:10.936Z,938.12
2018-06-18T01:38:23.487Z,938.09
2018-06-18T01:38:36.191Z,938.17
2018-06-18T01:38:48.678Z,938.14
2018-06-18T01:39:01.697Z,938.12
2018-06-18T01:39:13.721Z,938.1
2018-06-18T01:39:26.652Z,938.1
2018-06-18T01:39:39.124Z,938.12
2018-06-18T01:39:51.610Z,938.09
2018-06-18T01:40:04.643Z,938.1
2018-06-18T01:40:17.606Z,938.09
2018-06-18T01:40:29.676Z,938.09
2018-06-18T01:40:42.618Z,938.09
2018-06-18T01:40:55.349Z,938.08
2018-06-18T01:41:07.886Z,938.08
2018-06-18T01:41:21.165Z,938.07
2018-06-18T01:41:33.199Z,938.13
2018-06-18T01:41:46.124Z,938.12
2018-06-18T01:41:58.580Z,938.13
2018-06-18T01:42:11.609Z,938.1
2018-06-18T01:42:24.551Z,938.08
2018-06-18T01:42:36.541Z,938.1
2018-06-18T01:42:49.065Z,938.14
2018-06-18T01:43:01.569Z,938.11
2018-06-18T01:43:14.547Z,938.11
2018-06-18T01:43:27.021Z,938.12
2018-06-18T01:43:38.618Z,938.13
2018-06-18T01:43:51.593Z,938.11
2018-06-18T01:44:04.097Z,938.1
2018-06-18T01:44:16.674Z,938.13
2018-06-18T01:44:28.808Z,938.1
2018-06-18T01:44:41.335Z,938.11
2018-06-18T01:44:54.398Z,938.07
2018-06-18T01:45:06.867Z,938.08
2018-06-18T01:45:19.839Z,938.09
2018-06-18T01:45:32.808Z,938.12
2018-06-18T01:45:45.750Z,938.13
2018-06-18T01:45:58.676Z,938.11
2018-06-18T01:46:10.682Z,938.13
2018-06-18T01:46:23.690Z,938.11
2018-06-18T01:46:36.145Z,938.11
2018-06-18T01:46:49.107Z,938.15
2018-06-18T01:47:01.604Z,938.11
2018-06-18T01:47:13.708Z,938.14
2018-06-18T01:47:26.262Z,938.1
2018-06-18T01:47:39.263Z,938.1
2018-06-18T01:47:51.757Z,938.12
2018-06-18T01:48:03.848Z,938.09
2018-06-18T01:48:16.872Z,938.11
2018-06-18T01:48:29.438Z,938.05
2018-06-18T01:48:41.979Z,938.13
2018-06-18T01:48:54.956Z,938.13
2018-06-18T01:49:07.035Z,938.11
2018-06-18T01:49:20.050Z,938.08
2018-06-18T01:49:33.061Z,938.12
2018-06-18T01:49:45.559Z,938.1
2018-06-18T01:49:58.041Z,938.1
2018-06-18T01:50:10.095Z,938.1
2018-06-18T01:50:23.080Z,938.12
2018-06-18T01:50:35.561Z,938.1
2018-06-18T01:50:47.677Z,938.11
2018-06-18T01:51:00.232Z,938.11
2018-06-18T01:51:12.235Z,938.11
2018-06-18T01:51:24.794Z,938.11
2018-06-18T01:51:37.782Z,938.18
2018-06-18T01:51:50.290Z,938.16
2018-06-18T01:52:03.330Z,938.21
2018-06-18T01:52:15.873Z,938.14
2018-06-18T01:52:28.877Z,938.1
2018-06-18T01:52:41.910Z,938.15
2018-06-18T01:52:54.857Z,938.16
2018-06-18T01:53:07.844Z,938.13
2018-06-18T01:53:20.432Z,938.18
2018-06-18T01:53:33.345Z,938.18
2018-06-18T01:53:45.426Z,938.17
2018-06-18T01:53:58.427Z,938.17
2018-06-18T01:54:10.938Z,938.19
2018-06-18T01:54:23.879Z,938.15
2018-06-18T01:54:36.309Z,938.16
2018-06-18T01:54:48.838Z,938.12
2018-06-18T01:55:01.905Z,938.12
2018-06-18T01:55:14.469Z,938.1
2018-06-18T01:55:27.001Z,938.11
2018-06-18T01:55:39.491Z,938.09
2018-06-18T01:55:52.460Z,938.08
2018-06-18T01:56:05.434Z,938.13
2018-06-18T01:56:17.950Z,938.08
2018-06-18T01:56:31.360Z,938.06
2018-06-18T01:56:43.926Z,938.07
2018-06-18T01:56:56.905Z,938.06
2018-06-18T01:57:08.931Z,938.12
2018-06-18T01:57:20.998Z,938.09
2018-06-18T01:57:33.054Z,938.11
2018-06-18T01:57:45.946Z,938.08
2018-06-18T01:57:58.479Z,938.1
2018-06-18T01:58:11.422Z,938.09
2018-06-18T01:58:23.473Z,938.06
2018-06-18T01:58:36.472Z,938.11
2018-06-18T01:58:49.022Z,938.03
2018-06-18T01:59:01.586Z,938.03
2018-06-18T01:59:14.117Z,938.07
2018-06-18T01:59:27.144Z,938.05
2018-06-18T01:59:39.640Z,938.08
2018-06-18T01:59:52.189Z,938.09
2018-06-18T02:00:04.670Z,938.08
2018-06-18T02:00:17.638Z,938.1
2018-06-18T02:00:30.143Z,938.09
2018-06-18T02:00:43.142Z,938.09
2018-06-18T02:00:55.662Z,938.06
2018-06-18T02:01:08.244Z,938.11
2018-06-18T02:01:21.187Z,938.09
2018-06-18T02:01:34.143Z,938.03
2018-06-18T02:01:46.665Z,938.06
2018-06-18T02:01:59.610Z,938.07
2018-06-18T02:02:11.746Z,938.07
2018-06-18T02:02:24.696Z,938.04
2018-06-18T02:02:37.719Z,938.07
2018-06-18T02:02:50.718Z,938.06
2018-06-18T02:03:03.180Z,938.08
2018-06-18T02:03:15.684Z,938.06
2018-06-18T02:03:28.884Z,938.09
2018-06-18T02:03:41.849Z,938.09
2018-06-18T02:03:54.541Z,938.11
2018-06-18T02:04:07.062Z,938.08
2018-06-18T02:04:19.618Z,938.08
2018-06-18T02:04:32.102Z,938.09
2018-06-18T02:04:44.637Z,938.08
2018-06-18T02:04:57.621Z,938.07
2018-06-18T02:05:10.597Z,938.1
2018-06-18T02:05:23.166Z,938.11
2018-06-18T02:05:36.116Z,938.09
2018-06-18T02:05:49.065Z,938.12
2018-06-18T02:06:01.599Z,938.09
2018-06-18T02:06:14.553Z,938.11
2018-06-18T02:06:27.083Z,938.09
2018-06-18T02:06:39.774Z,938.07
2018-06-18T02:06:52.340Z,938.11
2018-06-18T02:07:04.851Z,938.09
2018-06-18T02:07:17.883Z,938.07
2018-06-18T02:07:30.884Z,938.08
2018-06-18T02:07:43.391Z,938.06
2018-06-18T02:07:56.421Z,938.09
2018-06-18T02:08:08.485Z,938.1
2018-06-18T02:08:21.036Z,938.07
2018-06-18T02:08:33.994Z,938.11
2018-06-18T02:08:46.955Z,938.11
2018-06-18T02:08:59.913Z,938.08
2018-06-18T02:09:12.416Z,938.07
2018-06-18T02:09:24.964Z,938.06
2018-06-18T02:09:37.070Z,938.1
2018-06-18T02:09:50.072Z,938.07
2018-06-18T02:10:02.152Z,938.1
2018-06-18T02:10:14.218Z,938.08
2018-06-18T02:10:26.901Z,938.1
2018-06-18T02:10:39.622Z,938.08
2018-06-18T02:10:52.119Z,938.08
2018-06-18T02:11:04.183Z,938.07
2018-06-18T02:11:16.726Z,938.06
2018-06-18T02:11:28.796Z,938.07
2018-06-18T02:11:41.739Z,938.04
2018-06-18T02:11:53.877Z,938.07
2018-06-18T02:12:06.462Z,938.06
2018-06-18T02:12:18.997Z,938.05
2018-06-18T02:12:32.041Z,938.05
2018-06-18T02:12:44.553Z,938.05
2018-06-18T02:12:57.507Z,938.05
2018-06-18T02:13:10.013Z,938.06
2018-06-18T02:13:22.537Z,938.02
2018-06-18T02:13:35.467Z,938.06
2018-06-18T02:13:48.418Z,938.1
2018-06-18T02:14:01.400Z,938.09
2018-06-18T02:14:14.386Z,938.06
2018-06-18T02:14:26.610Z,938.05
2018-06-18T02:14:39.583Z,938.03
2018-06-18T02:14:52.136Z,938.07
2018-06-18T02:15:05.151Z,938.06
2018-06-18T02:15:18.139Z,938.01
2018-06-18T02:15:30.211Z,938.07
2018-06-18T02:15:42.757Z,938.06
2018-06-18T02:15:54.845Z,938.01
2018-06-18T02:16:08.017Z,938.05
2018-06-18T02:16:20.283Z,938.07
2018-06-18T02:16:33.273Z,938.05
2018-06-18T02:16:46.255Z,938.01
2018-06-18T02:16:59.232Z,938.04
2018-06-18T02:17:11.320Z,938
2018-06-18T02:17:24.374Z,938.05
2018-06-18T02:17:36.947Z,938.01
2018-06-18T02:17:49.919Z,938.01
2018-06-18T02:18:01.543Z,938.02
2018-06-18T02:18:14.113Z,938.02
2018-06-18T02:18:26.649Z,938.03
2018-06-18T02:18:38.728Z,938
2018-06-18T02:18:51.254Z,937.98
2018-06-18T02:19:03.979Z,937.99
2018-06-18T02:19:16.584Z,937.98
2018-06-18T02:19:29.566Z,938
2018-06-18T02:19:42.102Z,937.98
2018-06-18T02:19:55.077Z,938
2018-06-18T02:20:07.200Z,937.95
2018-06-18T02:20:19.767Z,937.97
2018-06-18T02:20:32.732Z,938
2018-06-18T02:20:44.796Z,937.97
2018-06-18T02:20:57.991Z,937.94
2018-06-18T02:21:10.493Z,937.97
2018-06-18T02:21:23.164Z,937.95
2018-06-18T02:21:35.669Z,937.96
2018-06-18T02:21:48.608Z,937.92
2018-06-18T02:22:01.119Z,937.96
2018-06-18T02:22:13.650Z,937.93
2018-06-18T02:22:26.140Z,937.95
2018-06-18T02:22:38.650Z,937.94
2018-06-18T02:22:51.137Z,937.95
2018-06-18T02:23:04.084Z,937.9
2018-06-18T02:23:17.096Z,937.88
2018-06-18T02:23:30.109Z,937.94
2018-06-18T02:23:43.097Z,937.9
2018-06-18T02:23:56.135Z,937.89
2018-06-18T02:24:08.758Z,937.89
2018-06-18T02:24:21.781Z,937.87
2018-06-18T02:24:34.760Z,937.92
2018-06-18T02:24:47.793Z,937.86
2018-06-18T02:25:00.796Z,937.84
2018-06-18T02:25:13.762Z,937.85
2018-06-18T02:25:26.288Z,937.89
2018-06-18T02:25:39.232Z,937.83
2018-06-18T02:25:52.214Z,937.85
2018-06-18T02:26:05.165Z,937.84
2018-06-18T02:26:18.071Z,937.85
2018-06-18T02:26:30.128Z,937.86
2018-06-18T02:26:43.336Z,937.83
2018-06-18T02:26:55.860Z,937.86
2018-06-18T02:27:08.416Z,937.83
2018-06-18T02:27:20.885Z,937.83
2018-06-18T02:27:33.802Z,937.84
2018-06-18T02:27:46.321Z,937.84
2018-06-18T02:27:58.920Z,937.83
2018-06-18T02:28:11.904Z,937.81
2018-06-18T02:28:24.394Z,937.84
2018-06-18T02:28:37.343Z,937.85
2018-06-18T02:28:50.304Z,937.81
2018-06-18T02:29:02.784Z,937.8
2018-06-18T02:29:15.900Z,937.81
2018-06-18T02:29:27.497Z,937.82
2018-06-18T02:29:40.514Z,937.81
2018-06-18T02:29:53.474Z,937.81
2018-06-18T02:30:05.509Z,937.77
2018-06-18T02:30:17.592Z,937.77
2018-06-18T02:30:30.595Z,937.8
2018-06-18T02:30:43.504Z,937.79
2018-06-18T02:30:56.477Z,937.82
2018-06-18T02:31:08.580Z,937.79
2018-06-18T02:31:21.116Z,937.79
2018-06-18T02:31:33.146Z,937.77
2018-06-18T02:31:46.089Z,937.8
2018-06-18T02:31:58.193Z,937.8
2018-06-18T02:32:10.254Z,937.77
2018-06-18T02:32:22.751Z,937.8
2018-06-18T02:32:35.730Z,937.78
2018-06-18T02:32:48.219Z,937.79
2018-06-18T02:33:00.755Z,937.8
2018-06-18T02:33:13.264Z,937.78
2018-06-18T02:33:25.833Z,937.82
2018-06-18T02:33:38.350Z,937.79
2018-06-18T02:33:51.327Z,937.79
2018-06-18T02:34:03.855Z,937.79
2018-06-18T02:34:16.002Z,937.79
2018-06-18T02:34:28.546Z,937.79
2018-06-18T02:34:40.579Z,937.78
2018-06-18T02:34:52.613Z,937.8
2018-06-18T02:35:05.188Z,937.83
2018-06-18T02:35:17.646Z,937.75
2018-06-18T02:35:30.628Z,937.79
2018-06-18T02:35:42.203Z,937.76
2018-06-18T02:35:54.705Z,937.78
2018-06-18T02:36:07.171Z,937.77
2018-06-18T02:36:19.707Z,937.79
2018-06-18T02:36:32.223Z,937.8
2018-06-18T02:36:45.192Z,937.76
2018-06-18T02:36:58.168Z,937.87
2018-06-18T02:37:10.701Z,937.79
2018-06-18T02:37:22.729Z,937.83
2018-06-18T02:37:35.847Z,937.82
2018-06-18T02:37:48.970Z,937.83
2018-06-18T02:38:01.927Z,937.81
2018-06-18T02:38:14.436Z,937.81